Time,TemperatureF,DewpointF,PressureIn,WindDirection,WindDirectionDegrees,WindSpeedMPH,WindSpeedGustMPH,Humidity,HourlyPrecipIn,Conditions,Clouds,dailyrainin,SoftwareType,DateUTC
2013-10-26 00:01:00,36.1,25.5,30.30,WNW,293,0.0,0.0,65,0.00,NA,NA,0.00,WeatherLink_script,2013-10-26 04:01:00,
2013-10-26 00:02:00,36.1,25.5,30.31,WNW,293,0.0,0.0,65,0.00,NA,NA,0.00,WeatherLink_script,2013-10-26 04:02:00,
2013-10-26 00:03:00,36.1,25.5,30.31,WNW,293,0.0,0.0,65,0.00,NA,NA,0.00,WeatherLink_script,2013-10-26 04:03:00,
2013-10-26 00:05:00,36.2,25.5,30.31,WNW,293,0.0,0.0,65,0.00,NA,NA,0.00,WeatherLink_script,2013-10-26 04:05:00,
2013-10-26 00:10:00,36.0,25.4,30.31,WNW,293,0.0,0.0,65,0.00,NA,NA,0.00,WeatherLink_script,2013-10-26 04:10:00,
2013-10-26 00:15:00,36.0,25.8,30.30,WNW,293,0.0,0.0,66,0.00,NA,NA,0.00,WeatherLink_script,2013-10-26 04:15:00,
2013-10-26 00:18:00,36.0,26.1,30.30,WNW,293,0.0,0.0,67,0.00,NA,NA,0.00,WeatherLink_script,2013-10-26 04:18:00,
2013-10-26 00:21:00,36.0,25.8,30.30,WNW,293,0.0,0.0,66,0.00,NA,NA,0.00,WeatherLink_script,2013-10-26 04:21:00,
2013-10-26 00:26:00,36.0,26.1,30.30,WNW,293,0.0,0.0,67,0.00,NA,NA,0.00,WeatherLink_script,2013-10-26 04:26:00,
2013-10-26 00:31:00,36.0,26.1,30.30,WNW,293,0.0,0.0,67,0.00,NA,NA,0.00,WeatherLink_script,2013-10-26 04:31:00,
2013-10-26 00:36:00,36.0,26.1,30.30,WNW,293,0.0,0.0,67,0.00,NA,NA,0.00,WeatherLink_script,2013-10-26 04:36:00,
2013-10-26 00:41:00,36.0,25.8,30.30,WNW,293,0.0,0.0,66,0.00,NA,NA,0.00,WeatherLink_script,2013-10-26 04:41:00,
2013-10-26 00:46:00,36.0,25.4,30.30,WNW,293,0.0,0.0,65,0.00,NA,NA,0.00,WeatherLink_script,2013-10-26 04:46:00,
2013-10-26 00:51:00,36.0,25.4,30.29,WNW,293,0.0,0.0,65,0.00,NA,NA,0.00,WeatherLink_script,2013-10-26 04:51:00,
2013-10-26 00:56:00,36.0,25.4,30.29,WNW,293,0.0,0.0,65,0.00,NA,NA,0.00,WeatherLink_script,2013-10-26 04:56:00,
2013-10-26 01:01:00,36.0,25.4,30.29,WNW,293,0.0,0.0,65,0.00,NA,NA,0.00,WeatherLink_script,2013-10-26 05:01:00,
2013-10-26 01:06:00,36.0,25.4,30.29,WNW,293,0.0,0.0,65,0.00,NA,NA,0.00,WeatherLink_script,2013-10-26 05:06:00,
2013-10-26 01:11:00,36.0,25.4,30.29,WNW,293,0.0,0.0,65,0.00,NA,NA,0.00,WeatherLink_script,2013-10-26 05:11:00,
2013-10-26 01:16:00,36.1,25.8,30.29,WNW,293,0.0,0.0,66,0.00,NA,NA,0.00,WeatherLink_script,2013-10-26 05:16:00,
2013-10-26 01:21:00,36.1,25.9,30.30,WNW,293,0.4,3.0,66,0.00,NA,NA,0.00,WeatherLink_script,2013-10-26 05:21:00,
2013-10-26 01:26:00,36.0,25.8,30.29,WNW,293,0.1,1.0,66,0.00,NA,NA,0.00,WeatherLink_script,2013-10-26 05:26:00,
2013-10-26 01:31:00,36.0,25.8,30.29,WNW,293,0.0,0.0,66,0.00,NA,NA,0.00,WeatherLink_script,2013-10-26 05:31:00,
2013-10-26 01:36:00,36.0,25.8,30.29,WNW,293,0.0,0.0,66,0.00,NA,NA,0.00,WeatherLink_script,2013-10-26 05:36:00,
2013-10-26 01:41:00,36.0,25.4,30.29,WNW,293,0.0,0.0,65,0.00,NA,NA,0.00,WeatherLink_script,2013-10-26 05:41:00,
2013-10-26 01:46:00,36.0,25.4,30.29,WNW,293,0.2,1.0,65,0.00,NA,NA,0.00,WeatherLink_script,2013-10-26 05:46:00,
2013-10-26 01:51:00,36.0,25.4,30.29,WNW,293,0.0,0.0,65,0.00,NA,NA,0.00,WeatherLink_script,2013-10-26 05:51:00,
2013-10-26 01:56:00,36.2,25.5,30.29,WNW,293,0.0,0.0,65,0.00,NA,NA,0.00,WeatherLink_script,2013-10-26 05:56:00,
2013-10-26 02:01:00,36.1,25.5,30.29,WNW,293,0.0,0.0,65,0.00,NA,NA,0.00,WeatherLink_script,2013-10-26 06:01:00,
2013-10-26 02:06:00,36.2,25.5,30.28,WNW,293,0.0,0.0,65,0.00,NA,NA,0.00,WeatherLink_script,2013-10-26 06:06:00,
2013-10-26 02:11:00,36.1,25.5,30.28,WNW,293,0.2,2.0,65,0.00,NA,NA,0.00,WeatherLink_script,2013-10-26 06:11:00,
2013-10-26 02:16:00,36.1,25.5,30.28,WNW,293,0.0,0.0,65,0.00,NA,NA,0.00,WeatherLink_script,2013-10-26 06:16:00,
2013-10-26 02:21:00,36.1,25.1,30.28,WNW,293,0.0,0.0,64,0.00,NA,NA,0.00,WeatherLink_script,2013-10-26 06:21:00,
2013-10-26 02:26:00,36.1,28.0,30.28,WNW,293,0.3,1.0,72,0.00,NA,NA,0.00,WeatherLink_script,2013-10-26 06:26:00,
2013-10-26 02:31:00,36.0,26.1,30.28,WNW,293,0.0,0.0,67,0.00,NA,NA,0.00,WeatherLink_script,2013-10-26 06:31:00,
2013-10-26 02:36:00,35.9,26.0,30.28,WNW,293,0.0,0.0,67,0.00,NA,NA,0.00,WeatherLink_script,2013-10-26 06:36:00,
2013-10-26 02:41:00,35.7,25.8,30.28,WNW,293,0.0,0.0,67,0.00,NA,NA,0.00,WeatherLink_script,2013-10-26 06:41:00,
2013-10-26 02:46:00,35.6,25.8,30.28,WNW,293,0.0,0.0,67,0.00,NA,NA,0.00,WeatherLink_script,2013-10-26 06:46:00,
2013-10-26 02:51:00,35.5,25.6,30.28,WNW,293,0.0,0.0,67,0.00,NA,NA,0.00,WeatherLink_script,2013-10-26 06:51:00,
2013-10-26 02:56:00,35.5,25.3,30.28,WNW,293,0.0,0.0,66,0.00,NA,NA,0.00,WeatherLink_script,2013-10-26 06:56:00,
2013-10-26 03:01:00,35.3,25.4,30.28,WNW,293,0.0,0.0,67,0.00,NA,NA,0.00,WeatherLink_script,2013-10-26 07:01:00,
2013-10-26 03:06:00,35.2,25.4,30.28,WNW,293,0.0,0.0,67,0.00,NA,NA,0.00,WeatherLink_script,2013-10-26 07:06:00,
2013-10-26 03:11:00,35.1,25.3,30.28,WNW,293,0.0,0.0,67,0.00,NA,NA,0.00,WeatherLink_script,2013-10-26 07:11:00,
2013-10-26 03:16:00,35.0,25.2,30.27,WNW,293,0.0,0.0,67,0.00,NA,NA,0.00,WeatherLink_script,2013-10-26 07:16:00,
2013-10-26 03:21:00,34.9,25.4,30.27,WNW,293,0.0,0.0,68,0.00,NA,NA,0.00,WeatherLink_script,2013-10-26 07:21:00,
2013-10-26 03:26:00,34.8,25.0,30.27,WNW,293,0.0,0.0,67,0.00,NA,NA,0.00,WeatherLink_script,2013-10-26 07:26:00,
2013-10-26 03:31:00,34.7,24.9,30.27,WNW,293,0.0,0.0,67,0.00,NA,NA,0.00,WeatherLink_script,2013-10-26 07:31:00,
2013-10-26 03:36:00,34.6,25.1,30.27,WNW,293,0.0,0.0,68,0.00,NA,NA,0.00,WeatherLink_script,2013-10-26 07:36:00,
2013-10-26 03:41:00,34.6,25.1,30.27,WNW,293,0.0,0.0,68,0.00,NA,NA,0.00,WeatherLink_script,2013-10-26 07:41:00,
2013-10-26 03:46:00,34.4,25.0,30.27,WNW,293,0.0,0.0,68,0.00,NA,NA,0.00,WeatherLink_script,2013-10-26 07:46:00,
2013-10-26 03:51:00,34.3,24.9,30.26,WNW,293,0.0,0.0,68,0.00,NA,NA,0.00,WeatherLink_script,2013-10-26 07:51:00,
2013-10-26 03:56:00,34.3,24.9,30.26,WNW,293,0.0,0.0,68,0.00,NA,NA,0.00,WeatherLink_script,2013-10-26 07:56:00,
2013-10-26 04:01:00,34.2,25.1,30.26,WNW,293,0.0,0.0,69,0.00,NA,NA,0.00,WeatherLink_script,2013-10-26 08:01:00,
2013-10-26 04:06:00,34.1,25.1,30.26,WNW,293,0.0,0.0,69,0.00,NA,NA,0.00,WeatherLink_script,2013-10-26 08:06:00,
2013-10-26 04:11:00,34.0,24.9,30.26,WNW,293,0.0,0.0,69,0.00,NA,NA,0.00,WeatherLink_script,2013-10-26 08:11:00,
2013-10-26 04:16:00,34.0,24.9,30.26,WNW,293,0.0,0.0,69,0.00,NA,NA,0.00,WeatherLink_script,2013-10-26 08:16:00,
2013-10-26 04:21:00,33.9,24.9,30.26,WNW,293,0.0,0.0,69,0.00,NA,NA,0.00,WeatherLink_script,2013-10-26 08:21:00,
2013-10-26 04:26:00,33.9,25.2,30.25,WNW,293,0.0,0.0,70,0.00,NA,NA,0.00,WeatherLink_script,2013-10-26 08:26:00,
2013-10-26 04:31:00,33.9,25.2,30.25,WNW,293,0.0,0.0,70,0.00,NA,NA,0.00,WeatherLink_script,2013-10-26 08:31:00,
2013-10-26 04:36:00,33.7,25.0,30.25,WNW,293,0.0,0.0,70,0.00,NA,NA,0.00,WeatherLink_script,2013-10-26 08:36:00,
2013-10-26 04:41:00,33.7,24.6,30.25,WNW,293,0.0,0.0,69,0.00,NA,NA,0.00,WeatherLink_script,2013-10-26 08:41:00,
2013-10-26 04:46:00,33.7,24.6,30.26,WNW,293,0.0,0.0,69,0.00,NA,NA,0.00,WeatherLink_script,2013-10-26 08:46:00,
2013-10-26 04:51:00,33.7,24.6,30.26,WNW,293,0.0,0.0,69,0.00,NA,NA,0.00,WeatherLink_script,2013-10-26 08:51:00,
2013-10-26 04:56:00,33.7,25.0,30.26,WNW,293,0.0,0.0,70,0.00,NA,NA,0.00,WeatherLink_script,2013-10-26 08:56:00,
2013-10-26 05:01:00,33.7,25.0,30.25,WNW,293,0.0,0.0,70,0.00,NA,NA,0.00,WeatherLink_script,2013-10-26 09:01:00,
2013-10-26 05:06:00,33.7,25.0,30.25,WNW,293,0.0,0.0,70,0.00,NA,NA,0.00,WeatherLink_script,2013-10-26 09:06:00,
2013-10-26 05:11:00,33.6,24.9,30.25,WNW,293,0.0,0.0,70,0.00,NA,NA,0.00,WeatherLink_script,2013-10-26 09:11:00,
2013-10-26 05:16:00,33.6,25.2,30.25,WNW,293,0.0,0.0,71,0.00,NA,NA,0.00,WeatherLink_script,2013-10-26 09:16:00,
2013-10-26 05:21:00,33.5,24.8,30.26,WNW,293,0.0,0.0,70,0.00,NA,NA,0.00,WeatherLink_script,2013-10-26 09:21:00,
2013-10-26 05:26:00,33.5,25.1,30.26,WNW,293,0.0,0.0,71,0.00,NA,NA,0.00,WeatherLink_script,2013-10-26 09:26:00,
2013-10-26 05:31:00,33.3,24.9,30.25,WNW,293,0.0,0.0,71,0.00,NA,NA,0.00,WeatherLink_script,2013-10-26 09:31:00,
2013-10-26 05:36:00,33.3,24.6,30.25,WNW,293,0.0,0.0,70,0.00,NA,NA,0.00,WeatherLink_script,2013-10-26 09:36:00,
2013-10-26 05:41:00,33.3,24.9,30.25,WNW,293,0.0,0.0,71,0.00,NA,NA,0.00,WeatherLink_script,2013-10-26 09:41:00,
2013-10-26 05:46:00,33.3,24.9,30.25,WNW,293,0.0,0.0,71,0.00,NA,NA,0.00,WeatherLink_script,2013-10-26 09:46:00,
2013-10-26 05:51:00,33.3,24.6,30.25,WNW,293,0.0,0.0,70,0.00,NA,NA,0.00,WeatherLink_script,2013-10-26 09:51:00,
2013-10-26 05:56:00,33.3,24.6,30.25,WNW,293,0.0,0.0,70,0.00,NA,NA,0.00,WeatherLink_script,2013-10-26 09:56:00,
2013-10-26 06:01:00,33.3,24.6,30.25,WNW,293,0.0,0.0,70,0.00,NA,NA,0.00,WeatherLink_script,2013-10-26 10:01:00,
2013-10-26 06:06:00,33.3,24.6,30.25,WNW,293,0.0,0.0,70,0.00,NA,NA,0.00,WeatherLink_script,2013-10-26 10:06:00,
2013-10-26 06:11:00,33.3,24.9,30.25,WNW,293,0.0,0.0,71,0.00,NA,NA,0.00,WeatherLink_script,2013-10-26 10:11:00,
2013-10-26 06:16:00,33.2,24.9,30.24,WNW,293,0.0,0.0,71,0.00,NA,NA,0.00,WeatherLink_script,2013-10-26 10:16:00,
2013-10-26 06:21:00,33.2,24.8,30.24,WNW,293,0.0,0.0,71,0.00,NA,NA,0.00,WeatherLink_script,2013-10-26 10:21:00,
2013-10-26 06:26:00,33.0,25.0,30.25,WNW,293,0.0,0.0,72,0.00,NA,NA,0.00,WeatherLink_script,2013-10-26 10:26:00,
2013-10-26 06:31:00,32.8,24.8,30.25,WNW,293,0.0,0.0,72,0.00,NA,NA,0.00,WeatherLink_script,2013-10-26 10:31:00,
2013-10-26 06:36:00,32.7,25.0,30.25,WNW,293,0.0,0.0,73,0.00,NA,NA,0.00,WeatherLink_script,2013-10-26 10:36:00,
2013-10-26 06:41:00,32.8,25.4,30.24,WNW,293,0.1,1.0,74,0.00,NA,NA,0.00,WeatherLink_script,2013-10-26 10:41:00,
2013-10-26 06:46:00,32.9,25.6,30.24,WNW,293,0.0,0.0,74,0.00,NA,NA,0.00,WeatherLink_script,2013-10-26 10:46:00,
2013-10-26 06:51:00,33.2,25.5,30.24,WNW,293,0.1,1.0,73,0.00,NA,NA,0.00,WeatherLink_script,2013-10-26 10:51:00,
2013-10-26 06:56:00,33.3,25.6,30.24,WNW,293,0.0,0.0,73,0.00,NA,NA,0.00,WeatherLink_script,2013-10-26 10:56:00,
2013-10-26 07:01:00,33.4,25.4,30.24,WNW,293,0.0,0.0,72,0.00,NA,NA,0.00,WeatherLink_script,2013-10-26 11:01:00,
2013-10-26 07:06:00,33.6,25.2,30.24,WNW,293,0.0,0.0,71,0.00,NA,NA,0.00,WeatherLink_script,2013-10-26 11:06:00,
2013-10-26 07:11:00,33.6,25.2,30.23,WNW,293,0.0,0.0,71,0.00,NA,NA,0.00,WeatherLink_script,2013-10-26 11:11:00,
2013-10-26 07:16:00,0.0,0.0,0.82,North,0,0.0,0.0,0,0.00,NA,NA,0.00,WeatherLink_script,2013-10-26 11:16:00,
2013-10-26 07:21:00,33.4,25.4,30.24,WNW,293,0.0,0.0,72,0.00,NA,NA,0.00,WeatherLink_script,2013-10-26 11:21:00,
2013-10-26 07:26:00,33.3,25.3,30.23,WNW,293,0.4,1.0,72,0.00,NA,NA,0.00,WeatherLink_script,2013-10-26 11:26:00,
2013-10-26 07:31:00,33.3,25.3,30.24,WNW,293,0.0,0.0,72,0.00,NA,NA,0.00,WeatherLink_script,2013-10-26 11:31:00,
2013-10-26 07:36:00,33.4,25.4,30.23,WNW,293,0.1,1.0,72,0.00,NA,NA,0.00,WeatherLink_script,2013-10-26 11:36:00,
2013-10-26 07:41:00,33.4,25.4,30.23,WNW,293,0.0,0.0,72,0.00,NA,NA,0.00,WeatherLink_script,2013-10-26 11:41:00,
2013-10-26 07:46:00,33.5,25.8,30.23,WNW,293,0.0,0.0,73,0.00,NA,NA,0.00,WeatherLink_script,2013-10-26 11:46:00,
2013-10-26 07:51:00,33.5,25.4,30.22,WNW,293,0.0,0.0,72,0.00,NA,NA,0.00,WeatherLink_script,2013-10-26 11:51:00,
2013-10-26 07:56:00,33.3,25.6,30.23,WNW,293,1.5,3.0,73,0.00,NA,NA,0.00,WeatherLink_script,2013-10-26 11:56:00,
2013-10-26 08:01:00,33.3,25.3,30.22,WNW,293,0.0,0.0,72,0.00,NA,NA,0.00,WeatherLink_script,2013-10-26 12:01:00,
2013-10-26 08:06:00,33.3,25.6,30.23,WNW,293,0.0,0.0,73,0.00,NA,NA,0.00,WeatherLink_script,2013-10-26 12:06:00,
2013-10-26 08:11:00,33.4,25.7,30.23,WNW,293,0.4,1.0,73,0.00,NA,NA,0.00,WeatherLink_script,2013-10-26 12:11:00,
2013-10-26 08:16:00,33.5,25.5,30.23,WNW,293,0.0,0.0,72,0.00,NA,NA,0.00,WeatherLink_script,2013-10-26 12:16:00,
2013-10-26 08:21:00,33.6,25.9,30.22,WNW,293,0.3,2.0,73,0.00,NA,NA,0.00,WeatherLink_script,2013-10-26 12:21:00,
2013-10-26 08:26:00,33.9,25.8,30.22,WNW,288,0.2,1.0,72,0.00,NA,NA,0.00,WeatherLink_script,2013-10-26 12:26:00,
2013-10-26 08:31:00,34.0,26.3,30.22,WNW,288,0.3,1.0,73,0.00,NA,NA,0.00,WeatherLink_script,2013-10-26 12:31:00,
2013-10-26 08:36:00,34.2,26.5,30.22,WNW,288,0.3,1.0,73,0.00,NA,NA,0.00,WeatherLink_script,2013-10-26 12:36:00,
2013-10-26 08:41:00,34.4,26.3,30.23,WNW,288,0.0,0.0,72,0.00,NA,NA,0.00,WeatherLink_script,2013-10-26 12:41:00,
2013-10-26 08:46:00,34.5,26.4,30.23,WNW,288,0.0,0.0,72,0.00,NA,NA,0.00,WeatherLink_script,2013-10-26 12:46:00,
2013-10-26 08:51:00,34.6,25.8,30.22,WNW,288,0.4,1.0,70,0.00,NA,NA,0.00,WeatherLink_script,2013-10-26 12:51:00,
2013-10-26 08:56:00,34.6,25.8,30.22,WNW,288,0.1,1.0,70,0.00,NA,NA,0.00,WeatherLink_script,2013-10-26 12:56:00,
2013-10-26 09:01:00,34.8,28.0,30.22,WNW,288,0.1,1.0,76,0.00,NA,NA,0.00,WeatherLink_script,2013-10-26 13:01:00,
2013-10-26 09:06:00,35.0,26.6,30.22,WNW,288,0.5,1.0,71,0.00,NA,NA,0.00,WeatherLink_script,2013-10-26 13:06:00,
2013-10-26 09:11:00,35.3,27.2,30.23,WNW,288,0.5,2.0,72,0.00,NA,NA,0.00,WeatherLink_script,2013-10-26 13:11:00,
2013-10-26 09:16:00,35.6,28.5,30.23,WNW,286,0.6,2.0,75,0.00,NA,NA,0.00,WeatherLink_script,2013-10-26 13:16:00,
2013-10-26 09:21:00,35.9,28.4,30.22,WNW,282,0.3,2.0,74,0.00,NA,NA,0.00,WeatherLink_script,2013-10-26 13:21:00,
2013-10-26 09:26:00,36.0,28.2,30.22,WNW,282,0.2,1.0,73,0.00,NA,NA,0.00,WeatherLink_script,2013-10-26 13:26:00,
2013-10-26 09:31:00,36.1,28.6,30.22,WNW,282,0.4,1.0,74,0.00,NA,NA,0.00,WeatherLink_script,2013-10-26 13:31:00,
2013-10-26 09:36:00,36.4,28.9,30.22,West,281,0.5,3.0,74,0.00,NA,NA,0.00,WeatherLink_script,2013-10-26 13:36:00,
2013-10-26 09:41:00,36.7,29.2,30.22,West,281,1.0,2.0,74,0.00,NA,NA,0.00,WeatherLink_script,2013-10-26 13:41:00,
2013-10-26 09:46:00,37.3,29.7,30.22,NNE,24,0.2,2.0,74,0.00,NA,NA,0.00,WeatherLink_script,2013-10-26 13:46:00,
2013-10-26 09:51:00,38.1,30.2,30.22,West,264,1.0,3.0,73,0.00,NA,NA,0.00,WeatherLink_script,2013-10-26 13:51:00,
2013-10-26 09:56:00,39.2,30.3,30.21,SW,228,2.1,4.0,70,0.00,NA,NA,0.00,WeatherLink_script,2013-10-26 13:56:00,
2013-10-26 10:01:00,40.4,31.7,30.21,WSW,246,2.8,4.0,71,0.00,NA,NA,0.00,WeatherLink_script,2013-10-26 14:01:00,
2013-10-26 10:06:00,41.2,30.4,30.21,SSW,206,2.7,4.0,65,0.00,NA,NA,0.00,WeatherLink_script,2013-10-26 14:06:00,
2013-10-26 10:11:00,42.2,31.3,30.21,SW,218,2.5,4.0,65,0.00,NA,NA,0.00,WeatherLink_script,2013-10-26 14:11:00,
2013-10-26 10:16:00,43.1,31.3,30.21,SSW,210,2.0,4.0,63,0.00,NA,NA,0.00,WeatherLink_script,2013-10-26 14:16:00,
2013-10-26 10:21:00,43.9,31.7,30.21,West,271,1.6,3.0,62,0.00,NA,NA,0.00,WeatherLink_script,2013-10-26 14:21:00,
2013-10-26 10:26:00,44.8,32.2,30.20,WSW,248,2.5,4.0,61,0.00,NA,NA,0.00,WeatherLink_script,2013-10-26 14:26:00,
2013-10-26 10:31:00,45.5,31.6,30.20,WSW,247,2.7,4.0,58,0.00,NA,NA,0.00,WeatherLink_script,2013-10-26 14:31:00,
2013-10-26 10:36:00,46.5,32.1,30.20,WSW,241,2.5,5.0,57,0.00,NA,NA,0.00,WeatherLink_script,2013-10-26 14:36:00,
2013-10-26 10:41:00,46.8,31.5,30.20,WSW,239,2.5,5.0,55,0.00,NA,NA,0.00,WeatherLink_script,2013-10-26 14:41:00,
2013-10-26 10:46:00,47.5,32.1,30.20,SSW,212,1.7,3.0,55,0.00,NA,NA,0.00,WeatherLink_script,2013-10-26 14:46:00,
2013-10-26 10:51:00,48.0,32.2,30.20,WSW,245,2.0,5.0,54,0.00,NA,NA,0.00,WeatherLink_script,2013-10-26 14:51:00,
2013-10-26 10:56:00,48.6,33.2,30.20,WNW,296,1.5,2.0,55,0.00,NA,NA,0.00,WeatherLink_script,2013-10-26 14:56:00,
2013-10-26 11:01:00,48.9,31.1,30.19,West,270,2.4,5.0,50,0.00,NA,NA,0.00,WeatherLink_script,2013-10-26 15:01:00,
2013-10-26 11:06:00,48.9,29.6,30.19,West,264,1.9,4.0,47,0.00,NA,NA,0.00,WeatherLink_script,2013-10-26 15:06:00,
2013-10-26 11:11:00,48.9,29.6,30.19,WSW,237,2.6,4.0,47,0.00,NA,NA,0.00,WeatherLink_script,2013-10-26 15:11:00,
2013-10-26 11:16:00,49.0,29.7,30.19,West,270,2.5,5.0,47,0.00,NA,NA,0.00,WeatherLink_script,2013-10-26 15:16:00,
2013-10-26 11:21:00,49.2,29.3,30.19,SW,217,1.6,3.0,46,0.00,NA,NA,0.00,WeatherLink_script,2013-10-26 15:21:00,
2013-10-26 11:26:00,49.5,30.6,30.18,SW,220,1.2,3.0,48,0.00,NA,NA,0.00,WeatherLink_script,2013-10-26 15:26:00,
2013-10-26 11:31:00,49.9,29.9,30.18,WSW,257,2.1,5.0,46,0.00,NA,NA,0.00,WeatherLink_script,2013-10-26 15:31:00,
2013-10-26 11:36:00,50.1,29.6,30.17,WSW,237,3.1,6.0,45,0.00,NA,NA,0.00,WeatherLink_script,2013-10-26 15:36:00,
2013-10-26 11:41:00,50.4,30.4,30.17,SW,224,1.5,3.0,46,0.00,NA,NA,0.00,WeatherLink_script,2013-10-26 15:41:00,
2013-10-26 11:46:00,50.5,29.4,30.17,SSW,212,2.8,5.0,44,0.00,NA,NA,0.00,WeatherLink_script,2013-10-26 15:46:00,
2013-10-26 11:51:00,50.6,29.5,30.17,SW,214,2.6,4.0,44,0.00,NA,NA,0.00,WeatherLink_script,2013-10-26 15:51:00,
2013-10-26 11:56:00,51.1,31.0,30.17,WSW,258,1.0,3.0,46,0.00,NA,NA,0.00,WeatherLink_script,2013-10-26 15:56:00,
2013-10-26 12:01:00,51.5,30.3,30.16,SW,226,1.5,5.0,44,0.00,NA,NA,0.00,WeatherLink_script,2013-10-26 16:01:00,
2013-10-26 12:06:00,52.0,31.8,30.15,SW,228,2.2,5.0,46,0.00,NA,NA,0.00,WeatherLink_script,2013-10-26 16:06:00,
2013-10-26 12:11:00,52.4,31.7,30.16,WSW,238,1.2,3.0,45,0.00,NA,NA,0.00,WeatherLink_script,2013-10-26 16:11:00,
2013-10-26 12:16:00,52.7,30.8,30.15,SW,224,1.6,5.0,43,0.00,NA,NA,0.00,WeatherLink_script,2013-10-26 16:16:00,
2013-10-26 12:21:00,53.2,31.8,30.16,WSW,255,2.2,3.0,44,0.00,NA,NA,0.00,WeatherLink_script,2013-10-26 16:21:00,
2013-10-26 12:26:00,53.5,32.1,30.15,SW,216,1.7,3.0,44,0.00,NA,NA,0.00,WeatherLink_script,2013-10-26 16:26:00,
2013-10-26 12:31:00,53.5,31.0,30.14,South,178,2.1,4.0,42,0.00,NA,NA,0.00,WeatherLink_script,2013-10-26 16:31:00,
2013-10-26 12:36:00,53.6,30.5,30.14,SSW,210,2.3,5.0,41,0.00,NA,NA,0.00,WeatherLink_script,2013-10-26 16:36:00,
2013-10-26 12:41:00,53.7,31.7,30.14,West,265,1.8,4.0,43,0.00,NA,NA,0.00,WeatherLink_script,2013-10-26 16:41:00,
2013-10-26 12:46:00,53.9,31.9,30.13,SW,221,1.7,5.0,43,0.00,NA,NA,0.00,WeatherLink_script,2013-10-26 16:46:00,
2013-10-26 12:51:00,54.3,32.9,30.13,West,277,2.5,8.0,44,0.00,NA,NA,0.00,WeatherLink_script,2013-10-26 16:51:00,
2013-10-26 12:56:00,54.5,33.6,30.13,WSW,251,0.9,2.0,45,0.00,NA,NA,0.00,WeatherLink_script,2013-10-26 16:56:00,
2013-10-26 13:01:00,54.9,32.3,30.13,South,183,1.4,2.0,42,0.00,NA,NA,0.00,WeatherLink_script,2013-10-26 17:01:00,
2013-10-26 13:06:00,55.0,31.7,30.12,SW,234,3.5,7.0,41,0.00,NA,NA,0.00,WeatherLink_script,2013-10-26 17:06:00,
2013-10-26 13:11:00,55.0,32.3,30.12,SW,219,2.7,6.0,42,0.00,NA,NA,0.00,WeatherLink_script,2013-10-26 17:11:00,
2013-10-26 13:16:00,55.0,32.3,30.12,WNW,289,1.7,3.0,42,0.00,NA,NA,0.00,WeatherLink_script,2013-10-26 17:16:00,
2013-10-26 13:21:00,55.2,33.1,30.11,NW,308,0.6,2.0,43,0.00,NA,NA,0.00,WeatherLink_script,2013-10-26 17:21:00,
2013-10-26 13:26:00,55.3,31.4,30.11,SW,214,2.9,4.0,40,0.00,NA,NA,0.00,WeatherLink_script,2013-10-26 17:26:00,
2013-10-26 13:31:00,55.3,31.4,30.11,WSW,239,3.2,5.0,40,0.00,NA,NA,0.00,WeatherLink_script,2013-10-26 17:31:00,
2013-10-26 13:36:00,55.5,32.8,30.10,SW,222,1.5,5.0,42,0.00,NA,NA,0.00,WeatherLink_script,2013-10-26 17:36:00,
2013-10-26 13:41:00,55.5,31.6,30.10,WSW,239,2.2,4.0,40,0.00,NA,NA,0.00,WeatherLink_script,2013-10-26 17:41:00,
2013-10-26 13:46:00,55.5,32.2,30.10,SW,218,2.2,5.0,41,0.00,NA,NA,0.00,WeatherLink_script,2013-10-26 17:46:00,
2013-10-26 13:51:00,55.9,31.9,30.09,SSW,198,2.4,4.0,40,0.00,NA,NA,0.00,WeatherLink_script,2013-10-26 17:51:00,
2013-10-26 13:56:00,56.1,33.9,30.09,WNW,282,0.8,2.0,43,0.00,NA,NA,0.00,WeatherLink_script,2013-10-26 17:56:00,
2013-10-26 14:01:00,56.4,32.4,30.09,SW,227,0.8,3.0,40,0.00,NA,NA,0.00,WeatherLink_script,2013-10-26 18:01:00,
2013-10-26 14:06:00,56.7,32.0,30.09,SW,226,3.6,7.0,39,0.00,NA,NA,0.00,WeatherLink_script,2013-10-26 18:06:00,
2013-10-26 14:11:00,56.7,31.4,30.08,SW,233,2.3,5.0,38,0.00,NA,NA,0.00,WeatherLink_script,2013-10-26 18:11:00,
2013-10-26 14:16:00,56.8,32.1,30.07,SW,230,1.2,3.0,39,0.00,NA,NA,0.00,WeatherLink_script,2013-10-26 18:16:00,
2013-10-26 14:21:00,57.1,30.4,30.07,SW,223,0.7,3.0,36,0.00,NA,NA,0.00,WeatherLink_script,2013-10-26 18:21:00,
2013-10-26 14:26:00,57.3,31.2,30.07,SW,227,1.1,3.0,37,0.00,NA,NA,0.00,WeatherLink_script,2013-10-26 18:26:00,
2013-10-26 14:31:00,57.1,30.4,30.07,SW,225,3.2,8.0,36,0.00,NA,NA,0.00,WeatherLink_script,2013-10-26 18:31:00,
2013-10-26 14:36:00,57.0,31.7,30.07,SSW,193,1.5,3.0,38,0.00,NA,NA,0.00,WeatherLink_script,2013-10-26 18:36:00,
2013-10-26 14:41:00,57.0,31.0,30.06,SSW,205,0.4,1.0,37,0.00,NA,NA,0.00,WeatherLink_script,2013-10-26 18:41:00,
2013-10-26 14:46:00,57.1,31.7,30.05,South,185,2.0,4.0,38,0.00,NA,NA,0.00,WeatherLink_script,2013-10-26 18:46:00,
2013-10-26 14:51:00,57.0,31.0,30.05,WSW,249,2.3,5.0,37,0.00,NA,NA,0.00,WeatherLink_script,2013-10-26 18:51:00,
2013-10-26 14:56:00,56.8,30.8,30.05,West,259,1.9,4.0,37,0.00,NA,NA,0.00,WeatherLink_script,2013-10-26 18:56:00,
2013-10-26 15:01:00,56.5,30.5,30.05,WSW,238,2.5,6.0,37,0.00,NA,NA,0.00,WeatherLink_script,2013-10-26 19:01:00,
2013-10-26 15:06:00,56.5,31.2,30.05,SW,224,1.7,3.0,38,0.00,NA,NA,0.00,WeatherLink_script,2013-10-26 19:06:00,
2013-10-26 15:11:00,56.5,30.5,30.05,SW,236,3.6,7.0,37,0.00,NA,NA,0.00,WeatherLink_script,2013-10-26 19:11:00,
2013-10-26 15:16:00,56.5,31.2,30.04,West,272,1.5,3.0,38,0.00,NA,NA,0.00,WeatherLink_script,2013-10-26 19:16:00,
2013-10-26 15:21:00,56.5,29.9,30.05,SSW,212,3.1,5.0,36,0.00,NA,NA,0.00,WeatherLink_script,2013-10-26 19:21:00,
2013-10-26 15:26:00,56.2,30.3,30.04,SW,218,3.1,8.0,37,0.00,NA,NA,0.00,WeatherLink_script,2013-10-26 19:26:00,
2013-10-26 15:31:00,56.2,30.9,30.04,SSW,201,2.6,5.0,38,0.00,NA,NA,0.00,WeatherLink_script,2013-10-26 19:31:00,
2013-10-26 15:36:00,55.9,31.3,30.04,SSW,210,3.2,6.0,39,0.00,NA,NA,0.00,WeatherLink_script,2013-10-26 19:36:00,
2013-10-26 15:41:00,55.9,31.9,30.04,SSW,209,1.4,4.0,40,0.00,NA,NA,0.00,WeatherLink_script,2013-10-26 19:41:00,
2013-10-26 15:46:00,55.8,30.6,30.04,SW,232,4.0,7.0,38,0.00,NA,NA,0.00,WeatherLink_script,2013-10-26 19:46:00,
2013-10-26 15:51:00,55.6,30.4,30.04,SW,217,1.0,4.0,38,0.00,NA,NA,0.00,WeatherLink_script,2013-10-26 19:51:00,
2013-10-26 15:56:00,55.5,31.6,30.04,SW,222,2.0,4.0,40,0.00,NA,NA,0.00,WeatherLink_script,2013-10-26 19:56:00,
2013-10-26 16:01:00,55.5,30.9,30.04,SSW,210,1.8,3.0,39,0.00,NA,NA,0.00,WeatherLink_script,2013-10-26 20:01:00,
2013-10-26 16:06:00,55.2,30.0,30.03,West,262,1.9,6.0,38,0.00,NA,NA,0.00,WeatherLink_script,2013-10-26 20:06:00,
2013-10-26 16:11:00,55.2,31.9,30.03,SW,236,3.1,6.0,41,0.00,NA,NA,0.00,WeatherLink_script,2013-10-26 20:11:00,
2013-10-26 16:16:00,55.0,31.7,30.03,West,259,1.9,4.0,41,0.00,NA,NA,0.00,WeatherLink_script,2013-10-26 20:16:00,
2013-10-26 16:21:00,54.9,32.3,30.03,WSW,243,1.2,3.0,42,0.00,NA,NA,0.00,WeatherLink_script,2013-10-26 20:21:00,
2013-10-26 16:26:00,54.7,31.5,30.02,SSW,200,1.7,4.0,41,0.00,NA,NA,0.00,WeatherLink_script,2013-10-26 20:26:00,
2013-10-26 16:31:00,54.5,31.3,30.02,SW,222,2.0,5.0,41,0.00,NA,NA,0.00,WeatherLink_script,2013-10-26 20:31:00,
2013-10-26 16:36:00,54.3,32.3,30.02,SW,214,1.6,4.0,43,0.00,NA,NA,0.00,WeatherLink_script,2013-10-26 20:36:00,
2013-10-26 16:41:00,53.9,31.4,30.01,South,172,1.8,4.0,42,0.00,NA,NA,0.00,WeatherLink_script,2013-10-26 20:41:00,
2013-10-26 16:46:00,53.6,31.7,30.02,SW,223,2.4,5.0,43,0.00,NA,NA,0.00,WeatherLink_script,2013-10-26 20:46:00,
2013-10-26 16:51:00,53.2,31.9,30.02,SW,226,3.1,6.0,44,0.00,NA,NA,0.00,WeatherLink_script,2013-10-26 20:51:00,
2013-10-26 16:56:00,52.8,30.3,30.01,SW,217,2.4,3.0,42,0.00,NA,NA,0.00,WeatherLink_script,2013-10-26 20:56:00,
2013-10-26 17:01:00,52.6,30.7,30.01,SSW,211,1.6,4.0,43,0.00,NA,NA,0.00,WeatherLink_script,2013-10-26 21:01:00,
2013-10-26 17:06:00,52.6,31.3,30.01,SSW,210,2.4,5.0,44,0.00,NA,NA,0.00,WeatherLink_script,2013-10-26 21:06:00,
2013-10-26 17:11:00,52.4,31.1,30.01,SW,218,2.3,4.0,44,0.00,NA,NA,0.00,WeatherLink_script,2013-10-26 21:11:00,
2013-10-26 17:16:00,52.1,31.4,30.01,SW,228,1.5,3.0,45,0.00,NA,NA,0.00,WeatherLink_script,2013-10-26 21:16:00,
2013-10-26 17:21:00,52.0,30.8,30.01,WSW,255,3.4,5.0,44,0.00,NA,NA,0.00,WeatherLink_script,2013-10-26 21:21:00,
2013-10-26 17:26:00,51.9,30.7,30.01,SW,234,2.4,5.0,44,0.00,NA,NA,0.00,WeatherLink_script,2013-10-26 21:26:00,
2013-10-26 17:31:00,51.8,31.1,30.01,SW,228,3.4,6.0,45,0.00,NA,NA,0.00,WeatherLink_script,2013-10-26 21:31:00,
2013-10-26 17:36:00,51.7,31.0,30.00,SW,236,2.7,4.0,45,0.00,NA,NA,0.00,WeatherLink_script,2013-10-26 21:36:00,
2013-10-26 17:41:00,51.5,31.4,30.00,SW,218,2.9,6.0,46,0.00,NA,NA,0.00,WeatherLink_script,2013-10-26 21:41:00,
2013-10-26 17:46:00,51.3,30.1,30.00,WSW,255,2.5,5.0,44,0.00,NA,NA,0.00,WeatherLink_script,2013-10-26 21:46:00,
2013-10-26 17:51:00,51.0,31.5,30.00,SW,229,2.5,4.0,47,0.00,NA,NA,0.00,WeatherLink_script,2013-10-26 21:51:00,
2013-10-26 17:56:00,50.8,30.8,29.99,SW,235,2.7,4.0,46,0.00,NA,NA,0.00,WeatherLink_script,2013-10-26 21:56:00,
2013-10-26 18:01:00,50.5,31.0,29.99,SW,225,2.2,4.0,47,0.00,NA,NA,0.00,WeatherLink_script,2013-10-26 22:01:00,
2013-10-26 18:06:00,50.4,30.9,29.99,SW,224,2.5,5.0,47,0.00,NA,NA,0.00,WeatherLink_script,2013-10-26 22:06:00,
2013-10-26 18:11:00,50.0,30.6,30.00,WSW,245,2.5,4.0,47,0.00,NA,NA,0.00,WeatherLink_script,2013-10-26 22:11:00,
2013-10-26 18:16:00,49.9,30.4,30.00,SW,231,3.4,5.0,47,0.00,NA,NA,0.00,WeatherLink_script,2013-10-26 22:16:00,
2013-10-26 18:21:00,49.6,30.7,30.00,SW,221,2.4,4.0,48,0.00,NA,NA,0.00,WeatherLink_script,2013-10-26 22:21:00,
2013-10-26 18:26:00,49.5,31.1,30.00,SW,217,3.2,5.0,49,0.00,NA,NA,0.00,WeatherLink_script,2013-10-26 22:26:00,
2013-10-26 18:31:00,49.2,30.9,30.00,SSW,208,3.5,5.0,49,0.00,NA,NA,0.00,WeatherLink_script,2013-10-26 22:31:00,
2013-10-26 18:36:00,49.0,30.7,30.00,South,179,2.7,4.0,49,0.00,NA,NA,0.00,WeatherLink_script,2013-10-26 22:36:00,
2013-10-26 18:41:00,48.9,30.6,29.99,SW,218,3.5,5.0,49,0.00,NA,NA,0.00,WeatherLink_script,2013-10-26 22:41:00,
2013-10-26 18:46:00,48.9,30.6,30.00,WSW,246,3.1,5.0,49,0.00,NA,NA,0.00,WeatherLink_script,2013-10-26 22:46:00,
2013-10-26 18:51:00,48.9,30.6,30.00,SW,226,2.9,5.0,49,0.00,NA,NA,0.00,WeatherLink_script,2013-10-26 22:51:00,
2013-10-26 18:56:00,48.9,31.1,29.99,WSW,249,3.5,7.0,50,0.00,NA,NA,0.00,WeatherLink_script,2013-10-26 22:56:00,
2013-10-26 19:01:00,49.0,30.7,29.99,SW,227,3.1,6.0,49,0.00,NA,NA,0.00,WeatherLink_script,2013-10-26 23:01:00,
2013-10-26 19:06:00,49.3,31.9,30.00,SW,232,3.4,6.0,51,0.00,NA,NA,0.00,WeatherLink_script,2013-10-26 23:06:00,
2013-10-26 19:11:00,49.3,31.5,29.99,SW,230,2.9,5.0,50,0.00,NA,NA,0.00,WeatherLink_script,2013-10-26 23:11:00,
2013-10-26 19:16:00,49.5,31.6,29.99,SW,217,3.4,5.0,50,0.00,NA,NA,0.00,WeatherLink_script,2013-10-26 23:16:00,
2013-10-26 19:21:00,49.5,31.6,29.99,SW,219,3.2,5.0,50,0.00,NA,NA,0.00,WeatherLink_script,2013-10-26 23:21:00,
2013-10-26 19:26:00,49.5,31.6,29.99,SW,221,3.7,6.0,50,0.00,NA,NA,0.00,WeatherLink_script,2013-10-26 23:26:00,
2013-10-26 19:31:00,49.5,31.6,29.99,WSW,249,3.3,5.0,50,0.00,NA,NA,0.00,WeatherLink_script,2013-10-26 23:31:00,
2013-10-26 19:36:00,49.5,31.6,29.99,SW,235,3.4,7.0,50,0.00,NA,NA,0.00,WeatherLink_script,2013-10-26 23:36:00,
2013-10-26 19:41:00,49.3,31.9,29.99,SSW,213,2.2,5.0,51,0.00,NA,NA,0.00,WeatherLink_script,2013-10-26 23:41:00,
2013-10-26 19:46:00,49.2,32.3,29.99,SSW,213,2.1,4.0,52,0.00,NA,NA,0.00,WeatherLink_script,2013-10-26 23:46:00,
2013-10-26 19:51:00,48.9,32.1,29.98,SW,219,2.6,5.0,52,0.00,NA,NA,0.00,WeatherLink_script,2013-10-26 23:51:00,
2013-10-26 19:56:00,48.7,32.3,29.98,SW,217,2.5,5.0,53,0.00,NA,NA,0.00,WeatherLink_script,2013-10-26 23:56:00,
2013-10-26 20:01:00,48.4,32.6,29.98,SW,222,3.1,5.0,54,0.00,NA,NA,0.00,WeatherLink_script,2013-10-27 00:01:00,
2013-10-26 20:06:00,48.2,32.8,29.98,SW,215,2.3,4.0,55,0.00,NA,NA,0.00,WeatherLink_script,2013-10-27 00:06:00,
2013-10-26 20:11:00,48.2,32.8,29.98,SW,232,2.3,4.0,55,0.00,NA,NA,0.00,WeatherLink_script,2013-10-27 00:11:00,
2013-10-26 20:16:00,48.2,32.8,29.98,SW,218,1.8,4.0,55,0.00,NA,NA,0.00,WeatherLink_script,2013-10-27 00:16:00,
2013-10-26 20:21:00,48.2,32.3,29.98,SW,223,2.7,5.0,54,0.00,NA,NA,0.00,WeatherLink_script,2013-10-27 00:21:00,
2013-10-26 20:26:00,48.3,32.4,29.98,SW,224,3.4,5.0,54,0.00,NA,NA,0.00,WeatherLink_script,2013-10-27 00:26:00,
2013-10-26 20:31:00,48.3,32.5,29.97,SW,220,2.8,5.0,54,0.00,NA,NA,0.00,WeatherLink_script,2013-10-27 00:31:00,
2013-10-26 20:36:00,48.5,32.6,29.97,SW,228,2.6,7.0,54,0.00,NA,NA,0.00,WeatherLink_script,2013-10-27 00:36:00,
2013-10-26 20:41:00,48.5,32.6,29.97,WSW,255,3.0,5.0,54,0.00,NA,NA,0.00,WeatherLink_script,2013-10-27 00:41:00,
2013-10-26 20:46:00,48.3,32.9,29.97,SW,228,3.7,5.0,55,0.00,NA,NA,0.00,WeatherLink_script,2013-10-27 00:46:00,
2013-10-26 20:51:00,48.3,32.9,29.97,SW,225,3.3,7.0,55,0.00,NA,NA,0.00,WeatherLink_script,2013-10-27 00:51:00,
2013-10-26 20:56:00,48.3,32.9,29.97,SW,221,3.8,7.0,55,0.00,NA,NA,0.00,WeatherLink_script,2013-10-27 00:56:00,
2013-10-26 21:01:00,48.3,32.9,29.98,SW,219,3.7,5.0,55,0.00,NA,NA,0.00,WeatherLink_script,2013-10-27 01:01:00,
2013-10-26 21:06:00,48.4,33.0,29.97,SW,235,3.6,6.0,55,0.00,NA,NA,0.00,WeatherLink_script,2013-10-27 01:06:00,
2013-10-26 21:11:00,48.6,33.2,29.97,SW,231,3.4,7.0,55,0.00,NA,NA,0.00,WeatherLink_script,2013-10-27 01:11:00,
2013-10-26 21:16:00,48.6,33.2,29.97,SW,226,3.6,5.0,55,0.00,NA,NA,0.00,WeatherLink_script,2013-10-27 01:16:00,
2013-10-26 21:21:00,48.6,33.2,29.97,SW,231,3.0,5.0,55,0.00,NA,NA,0.00,WeatherLink_script,2013-10-27 01:21:00,
2013-10-26 21:26:00,48.7,33.3,29.97,SW,231,4.1,7.0,55,0.00,NA,NA,0.00,WeatherLink_script,2013-10-27 01:26:00,
2013-10-26 21:31:00,48.8,33.8,29.97,SW,223,3.0,5.0,56,0.00,NA,NA,0.00,WeatherLink_script,2013-10-27 01:31:00,
2013-10-26 21:36:00,48.8,33.8,29.97,SW,224,3.6,6.0,56,0.00,NA,NA,0.00,WeatherLink_script,2013-10-27 01:36:00,
2013-10-26 21:41:00,48.8,33.4,29.97,SW,226,4.0,6.0,55,0.00,NA,NA,0.00,WeatherLink_script,2013-10-27 01:41:00,
2013-10-26 21:46:00,48.8,33.8,29.96,SW,216,3.7,5.0,56,0.00,NA,NA,0.00,WeatherLink_script,2013-10-27 01:46:00,
2013-10-26 21:51:00,48.6,33.6,29.96,SW,223,3.3,6.0,56,0.00,NA,NA,0.00,WeatherLink_script,2013-10-27 01:51:00,
2013-10-26 21:56:00,48.6,33.6,29.96,SW,229,3.1,5.0,56,0.00,NA,NA,0.00,WeatherLink_script,2013-10-27 01:56:00,
2013-10-26 22:01:00,48.5,34.0,29.96,SW,232,3.6,5.0,57,0.00,NA,NA,0.00,WeatherLink_script,2013-10-27 02:01:00,
2013-10-26 22:06:00,48.5,34.0,29.96,SW,235,3.6,5.0,57,0.00,NA,NA,0.00,WeatherLink_script,2013-10-27 02:06:00,
2013-10-26 22:11:00,48.3,33.8,29.96,SW,217,3.4,6.0,57,0.00,NA,NA,0.00,WeatherLink_script,2013-10-27 02:11:00,
2013-10-26 22:16:00,48.3,33.8,29.97,SW,222,3.0,5.0,57,0.00,NA,NA,0.00,WeatherLink_script,2013-10-27 02:16:00,
2013-10-26 22:21:00,48.2,34.1,29.96,SW,221,3.5,5.0,58,0.00,NA,NA,0.00,WeatherLink_script,2013-10-27 02:21:00,
2013-10-26 22:26:00,48.1,34.0,29.96,SW,218,2.7,4.0,58,0.00,NA,NA,0.00,WeatherLink_script,2013-10-27 02:26:00,
2013-10-26 22:31:00,48.0,33.9,29.96,WSW,243,3.1,5.0,58,0.00,NA,NA,0.00,WeatherLink_script,2013-10-27 02:31:00,
2013-10-26 22:36:00,48.0,33.9,29.96,SW,226,3.9,7.0,58,0.00,NA,NA,0.00,WeatherLink_script,2013-10-27 02:36:00,
2013-10-26 22:41:00,47.8,33.8,29.96,SW,222,2.5,4.0,58,0.00,NA,NA,0.00,WeatherLink_script,2013-10-27 02:41:00,
2013-10-26 22:46:00,47.8,34.2,29.96,SW,218,3.0,5.0,59,0.00,NA,NA,0.00,WeatherLink_script,2013-10-27 02:46:00,
2013-10-26 22:51:00,47.7,34.1,29.97,SW,229,3.4,5.0,59,0.00,NA,NA,0.00,WeatherLink_script,2013-10-27 02:51:00,
2013-10-26 22:56:00,47.5,34.3,29.96,SW,228,3.7,5.0,60,0.00,NA,NA,0.00,WeatherLink_script,2013-10-27 02:56:00,
2013-10-26 23:01:00,47.5,34.3,29.96,SW,230,2.5,4.0,60,0.00,NA,NA,0.00,WeatherLink_script,2013-10-27 03:01:00,
2013-10-26 23:06:00,47.5,33.9,29.96,SW,231,3.2,5.0,59,0.00,NA,NA,0.00,WeatherLink_script,2013-10-27 03:06:00,
2013-10-26 23:11:00,47.5,33.9,29.97,SW,217,3.2,6.0,59,0.00,NA,NA,0.00,WeatherLink_script,2013-10-27 03:11:00,
2013-10-26 23:16:00,47.4,33.8,29.96,SW,222,3.7,5.0,59,0.00,NA,NA,0.00,WeatherLink_script,2013-10-27 03:16:00,
2013-10-26 23:21:00,47.3,33.7,29.97,WSW,237,3.5,5.0,59,0.00,NA,NA,0.00,WeatherLink_script,2013-10-27 03:21:00,
2013-10-26 23:26:00,47.1,33.9,29.97,SW,234,3.5,5.0,60,0.00,NA,NA,0.00,WeatherLink_script,2013-10-27 03:26:00,
2013-10-26 23:31:00,47.0,34.3,29.97,SW,233,3.7,5.0,61,0.00,NA,NA,0.00,WeatherLink_script,2013-10-27 03:31:00,
2013-10-26 23:36:00,46.8,34.1,29.97,SW,226,3.5,5.0,61,0.00,NA,NA,0.00,WeatherLink_script,2013-10-27 03:36:00,
2013-10-26 23:41:00,46.8,34.1,29.97,SW,225,3.2,5.0,61,0.00,NA,NA,0.00,WeatherLink_script,2013-10-27 03:41:00,
2013-10-26 23:46:00,46.7,34.4,29.97,SW,217,3.5,5.0,62,0.00,NA,NA,0.00,WeatherLink_script,2013-10-27 03:46:00,
2013-10-26 23:51:00,46.5,34.6,29.97,SW,223,3.9,5.0,63,0.00,NA,NA,0.00,WeatherLink_script,2013-10-27 03:51:00,
2013-10-26 23:56:00,46.4,34.1,29.97,SW,218,2.4,4.0,62,0.00,NA,NA,0.00,WeatherLink_script,2013-10-27 03:56:00,